Time;durP1;ratioP1;P1;durP2;ratioP2;P2;SDS_P1;SDS_P2;PMS_P1;PMS_P2;Temp;Humidity;BMP_temperature;BMP_pressure;BME280_temperature;BME280_humidity;BME280_pressure;Samples;Min_cycle;Max_cycle;Signal;HPM_P1;HPM_P2
2023/12/19 00:01:23;;;;;;;10.90;7.50;;;;;;;20.49;34.41;101962.28;102697;1293;62424;-82
2023/12/19 00:03:49;;;;;;;10.70;7.20;;;;;;;20.49;34.36;101961.05;103002;1293;62211;-82
2023/12/19 00:06:15;;;;;;;10.90;7.50;;;;;;;20.48;34.30;101957.35;102738;1293;60349;-82
2023/12/19 00:08:40;;;;;;;10.70;7.30;;;;;;;20.47;34.31;101952.03;102728;1292;62193;-82
2023/12/19 00:11:06;;;;;;;10.10;7.20;;;;;;;20.45;34.44;101948.17;102789;1295;62250;-82
2023/12/19 00:13:32;;;;;;;10.20;7.10;;;;;;;20.45;34.32;101942.84;102751;1294;60767;-82
2023/12/19 00:15:58;;;;;;;9.60;6.90;;;;;;;20.43;34.32;101938.96;102648;1292;62102;-82
2023/12/19 00:18:24;;;;;;;10.10;7.40;;;;;;;20.42;34.36;101933.65;102828;1294;62203;-82
2023/12/19 00:20:52;;;;;;;9.10;6.80;;;;;;;20.41;34.35;101932.46;102921;1297;62158;-82
2023/12/19 00:23:19;;;;;;;;;;;;;;;20.40;34.50;101938.20;102907;1292;62051;-82
2023/12/19 00:25:46;;;;;;;10.30;7.20;;;;;;;20.36;34.53;101941.64;102887;1294;62206;-82
2023/12/19 00:28:11;;;;;;;10.30;7.10;;;;;;;20.37;34.42;101945.89;102775;1294;62174;-81
2023/12/19 00:30:37;;;;;;;9.60;6.90;;;;;;;20.37;34.33;101950.38;102845;1294;62214;-82
2023/12/19 00:33:03;;;;;;;9.00;7.10;;;;;;;20.36;34.47;101951.83;102726;1292;62240;-82
2023/12/19 00:35:29;;;;;;;11.30;7.40;;;;;;;20.35;34.37;101950.46;102872;1293;62264;-81
2023/12/19 00:37:56;;;;;;;10.60;7.00;;;;;;;20.35;34.52;101954.40;102931;1293;60287;-82
2023/12/19 00:40:22;;;;;;;11.40;7.10;;;;;;;20.34;34.49;101954.43;102840;1292;60833;-82
2023/12/19 00:42:48;;;;;;;12.10;7.60;;;;;;;20.34;34.51;101951.58;102746;1294;62213;-81
2023/12/19 00:45:13;;;;;;;9.50;7.00;;;;;;;20.33;34.44;101948.41;102773;1294;60990;-82
2023/12/19 00:47:40;;;;;;;9.10;6.70;;;;;;;20.33;34.43;101950.55;102669;1292;62203;-82
2023/12/19 00:50:10;;;;;;;10.60;7.20;;;;;;;20.33;34.48;101955.22;102939;1293;72241;-82
2023/12/19 00:52:36;;;;;;;9.80;7.00;;;;;;;20.33;34.36;101954.52;102714;1299;75216;-82
2023/12/19 00:55:10;;;;;;;11.60;7.40;;;;;;;20.32;34.37;101952.94;102992;1292;62076;-82
2023/12/19 00:57:36;;;;;;;10.40;7.30;;;;;;;20.31;34.48;101948.86;102872;1292;62189;-81
2023/12/19 01:00:02;;;;;;;11.00;7.70;;;;;;;20.32;34.49;101950.95;102876;1294;60730;-82
2023/12/19 01:02:29;;;;;;;10.30;7.30;;;;;;;20.34;34.37;101950.71;102568;1292;62004;-82
2023/12/19 01:04:57;;;;;;;11.30;7.20;;;;;;;20.35;34.45;101950.98;102773;1294;62183;-82
2023/12/19 01:07:24;;;;;;;11.00;7.90;;;;;;;20.37;34.54;101947.34;102789;1293;62154;-82
2023/12/19 01:09:50;;;;;;;10.10;7.30;;;;;;;20.38;34.49;101947.44;102810;1297;60829;-82
2023/12/19 01:12:15;;;;;;;10.90;7.40;;;;;;;20.40;34.49;101942.31;102779;1293;62091;-82
2023/12/19 01:14:41;;;;;;;10.60;7.40;;;;;;;20.42;34.33;101946.70;103366;1293;60176;-82
2023/12/19 01:17:07;;;;;;;9.90;6.60;;;;;;;20.44;34.35;101949.29;102826;1294;61969;-82
2023/12/19 01:19:33;;;;;;;11.00;7.10;;;;;;;20.47;34.30;101951.50;102799;1294;62104;-82
2023/12/19 01:21:59;;;;;;;10.50;7.30;;;;;;;20.48;34.32;101948.74;102831;1293;62215;-82
2023/12/19 01:24:25;;;;;;;9.30;7.00;;;;;;;20.50;34.27;101951.52;102987;1292;75139;-82
2023/12/19 01:26:51;;;;;;;9.80;7.00;;;;;;;20.51;34.22;101949.29;102810;1294;62083;-81
2023/12/19 01:29:18;;;;;;;10.20;7.00;;;;;;;20.53;34.10;101952.21;102868;1292;62079;-82
2023/12/19 01:31:44;;;;;;;10.20;7.30;;;;;;;20.55;34.15;101952.84;102731;1294;60197;-82
2023/12/19 01:34:11;;;;;;;9.70;6.40;;;;;;;20.57;34.04;101948.45;102775;1295;62271;-82
2023/12/19 01:36:41;;;;;;;10.20;7.10;;;;;;;20.58;34.21;101945.34;102798;1292;60173;-81
2023/12/19 01:39:08;;;;;;;11.50;6.90;;;;;;;20.60;34.03;101938.66;102827;1292;60667;-81
2023/12/19 01:41:34;;;;;;;8.70;6.90;;;;;;;20.61;33.98;101933.40;102770;1293;59721;-81
2023/12/19 01:44:00;;;;;;;11.00;7.00;;;;;;;20.63;33.94;101927.95;102890;1292;60139;-81
2023/12/19 01:46:26;;;;;;;10.30;6.60;;;;;;;20.65;34.14;101934.85;102673;1294;62212;-82
2023/12/19 01:48:52;;;;;;;9.60;6.90;;;;;;;20.66;34.03;101942.13;102709;1292;60183;-82
2023/12/19 01:51:17;;;;;;;10.50;7.10;;;;;;;20.67;33.91;101938.30;102813;1292;62178;-82
2023/12/19 01:53:47;;;;;;;9.10;6.50;;;;;;;20.68;34.02;101935.39;102805;1294;59901;-82
2023/12/19 01:56:17;;;;;;;9.40;6.80;;;;;;;20.69;33.86;101934.64;102779;1292;62079;-82
2023/12/19 01:58:43;;;;;;;9.40;6.40;;;;;;;20.70;33.88;101931.02;102991;1293;61310;-82
2023/12/19 02:01:09;;;;;;;9.70;7.30;;;;;;;20.70;33.98;101929.73;102860;1294;62161;-82
2023/12/19 02:03:35;;;;;;;9.50;6.90;;;;;;;20.72;33.92;101925.55;102791;1294;62083;-82
2023/12/19 02:06:00;;;;;;;10.20;6.90;;;;;;;20.73;33.94;101918.35;102741;1292;62164;-82
2023/12/19 02:08:27;;;;;;;8.50;6.40;;;;;;;20.73;33.84;101915.46;102892;1293;62707;-82
2023/12/19 02:10:53;;;;;;;9.80;6.40;;;;;;;20.74;33.87;101915.77;102714;1298;60253;-82
2023/12/19 02:13:19;;;;;;;8.80;6.50;;;;;;;20.75;33.83;101916.98;102707;1294;62253;-82
2023/12/19 02:15:45;;;;;;;10.40;6.70;;;;;;;20.75;33.83;101913.38;102768;1293;62141;-82
2023/12/19 02:18:21;;;;;;;9.90;6.80;;;;;;;20.76;33.86;101908.16;102915;1293;62292;-82
2023/12/19 02:20:47;;;;;;;9.40;6.50;;;;;;;20.76;33.70;101909.58;102665;1292;62187;-82
2023/12/19 02:23:14;;;;;;;9.10;6.50;;;;;;;20.77;33.87;101913.29;102877;1296;62186;-81
2023/12/19 02:25:39;;;;;;;10.20;6.40;;;;;;;20.78;33.83;101909.70;102936;1292;60675;-82
2023/12/19 02:28:05;;;;;;;9.10;6.60;;;;;;;20.79;33.63;101913.40;102688;1293;62180;-81
2023/12/19 02:30:32;;;;;;;9.40;6.10;;;;;;;20.79;33.89;101917.33;102873;1293;62659;-82
2023/12/19 02:32:58;;;;;;;9.00;6.40;;;;;;;20.81;33.68;101926.90;102862;1297;59963;-82
2023/12/19 02:35:24;;;;;;;9.20;7.00;;;;;;;20.81;33.55;101923.14;102757;1293;62095;-81
2023/12/19 02:37:51;;;;;;;10.20;7.20;;;;;;;20.81;33.68;101922.02;102871;1293;62158;-82
2023/12/19 02:40:16;;;;;;;8.40;6.00;;;;;;;20.81;33.73;101922.55;102776;1292;62301;-82
2023/12/19 02:42:43;;;;;;;9.40;6.40;;;;;;;20.82;33.69;101926.63;102744;1295;61990;-82
2023/12/19 02:45:10;;;;;;;9.50;6.70;;;;;;;20.83;33.68;101928.56;102753;1292;62303;-81
2023/12/19 02:47:36;;;;;;;8.10;6.10;;;;;;;20.84;33.62;101924.40;102870;1292;60165;-82
2023/12/19 02:50:02;;;;;;;9.10;6.60;;;;;;;20.84;33.69;101921.00;102613;1292;62235;-82
2023/12/19 02:52:28;;;;;;;9.40;6.60;;;;;;;20.84;33.56;101916.34;102888;1296;60009;-82
2023/12/19 02:54:53;;;;;;;8.70;6.50;;;;;;;20.85;33.56;101918.62;103033;1294;62209;-82
2023/12/19 02:57:21;;;;;;;9.80;6.50;;;;;;;20.85;33.52;101926.15;102841;1293;75252;-81
2023/12/19 02:59:47;;;;;;;8.20;6.30;;;;;;;20.85;33.58;101929.15;102755;1293;62196;-82
2023/12/19 03:02:12;;;;;;;9.80;6.90;;;;;;;20.85;33.59;101933.09;102886;1294;63758;-82
2023/12/19 03:04:38;;;;;;;8.80;6.40;;;;;;;20.86;33.51;101930.90;102789;1292;62044;-82
2023/12/19 03:07:05;;;;;;;10.50;7.10;;;;;;;20.86;33.53;101932.16;102658;1294;62342;-81
2023/12/19 03:09:31;;;;;;;9.20;6.40;;;;;;;20.86;33.37;101933.42;102788;1293;62681;-82
2023/12/19 03:11:59;;;;;;;9.40;6.70;;;;;;;20.87;33.55;101927.29;102994;1292;62079;-82
2023/12/19 03:14:25;;;;;;;8.70;6.50;;;;;;;20.87;33.48;101926.38;102856;1292;62157;-82
2023/12/19 03:16:50;;;;;;;9.20;6.40;;;;;;;20.87;33.49;101926.02;102713;1294;62089;-82
2023/12/19 03:19:16;;;;;;;9.40;6.50;;;;;;;20.87;33.55;101923.67;102861;1296;62206;-82
2023/12/19 03:21:41;;;;;;;8.80;6.50;;;;;;;20.88;33.50;101923.13;102915;1293;62122;-82
2023/12/19 03:24:07;;;;;;;9.40;6.70;;;;;;;20.88;33.41;101923.08;102848;1293;62126;-81
2023/12/19 03:26:33;;;;;;;9.50;6.40;;;;;;;20.89;33.39;101925.77;102886;1292;62210;-82
2023/12/19 03:28:58;;;;;;;9.20;6.90;;;;;;;20.89;33.45;101924.28;102712;1299;62180;-82
2023/12/19 03:31:24;;;;;;;9.10;6.50;;;;;;;20.89;33.38;101921.07;102825;1293;62218;-82
2023/12/19 03:33:50;;;;;;;9.80;6.50;;;;;;;20.90;33.45;101921.21;102655;1293;62107;-82
2023/12/19 03:36:16;;;;;;;9.50;6.80;;;;;;;20.90;33.36;101919.41;102889;1293;60752;-82
2023/12/19 03:38:42;;;;;;;9.50;7.10;;;;;;;20.90;33.21;101922.49;102863;1293;59872;-82
2023/12/19 03:41:07;;;;;;;10.20;6.80;;;;;;;20.91;33.42;101918.00;102750;1293;62074;-82
2023/12/19 03:43:34;;;;;;;8.00;6.40;;;;;;;20.91;33.28;101914.20;102775;1294;62410;-82
2023/12/19 03:46:04;;;;;;;8.60;5.80;;;;;;;20.91;33.36;101913.82;102912;1293;62095;-82
2023/12/19 03:48:30;;;;;;;;;;;;;;;20.91;33.44;101910.98;102789;1293;60288;-82
2023/12/19 03:50:56;;;;;;;9.10;6.50;;;;;;;20.88;33.34;101905.59;102750;1293;62081;-81
2023/12/19 03:53:22;;;;;;;9.60;6.60;;;;;;;20.89;33.26;101899.08;102789;1293;62190;-82
2023/12/19 03:55:48;;;;;;;10.10;6.90;;;;;;;20.89;33.44;101897.10;102781;1294;62325;-81
2023/12/19 03:58:13;;;;;;;9.60;6.40;;;;;;;20.90;33.41;101900.65;102788;1293;60500;-82
2023/12/19 04:00:39;;;;;;;10.00;6.60;;;;;;;20.90;33.27;101906.44;102811;1293;62208;-82
2023/12/19 04:03:04;;;;;;;8.10;6.10;;;;;;;20.90;33.38;101905.51;102925;1293;60324;-82
2023/12/19 04:05:30;;;;;;;8.50;6.30;;;;;;;20.91;33.26;101904.52;102789;1293;62295;-82
2023/12/19 04:07:56;;;;;;;9.10;6.20;;;;;;;20.91;33.26;101912.71;102768;1294;62263;-82
2023/12/19 04:10:21;;;;;;;8.70;6.30;;;;;;;20.91;33.28;101913.44;102828;1293;62158;-82
2023/12/19 04:12:47;;;;;;;9.40;6.50;;;;;;;20.92;33.25;101910.55;102882;1298;62303;-81
2023/12/19 04:15:13;;;;;;;9.20;5.80;;;;;;;20.92;33.18;101903.76;102790;1294;72351;-82
2023/12/19 04:17:38;;;;;;;9.40;6.80;;;;;;;20.92;33.28;101899.09;102889;1293;62156;-82
2023/12/19 04:20:04;;;;;;;8.80;6.30;;;;;;;20.92;33.16;101893.51;102835;1293;62144;-82
2023/12/19 04:22:31;;;;;;;9.50;6.50;;;;;;;20.93;33.31;101890.98;102863;1293;60070;-82
2023/12/19 04:24:57;;;;;;;10.20;6.60;;;;;;;20.93;33.29;101888.64;102642;1294;62090;-82
2023/12/19 04:27:23;;;;;;;9.60;6.90;;;;;;;20.93;33.41;101888.84;102869;1293;62083;-82
2023/12/19 04:29:50;;;;;;;8.70;6.50;;;;;;;20.93;33.20;101896.52;102713;1293;62219;-82
2023/12/19 04:32:16;;;;;;;8.40;6.60;;;;;;;20.94;33.30;101902.58;102671;1293;62429;-82
2023/12/19 04:34:42;;;;;;;8.30;6.10;;;;;;;20.94;33.24;101910.63;102879;1294;60039;-82
2023/12/19 04:37:07;;;;;;;8.70;6.40;;;;;;;20.94;33.11;101911.16;102781;1293;62203;-82
2023/12/19 04:39:33;;;;;;;8.90;6.40;;;;;;;20.94;33.23;101919.94;102914;1293;75267;-82
2023/12/19 04:42:06;;;;;;;8.70;6.30;;;;;;;20.95;33.17;101924.36;102821;1293;60482;-82
2023/12/19 04:44:35;;;;;;;10.30;7.10;;;;;;;20.95;33.04;101920.61;103294;1293;62090;-83
2023/12/19 04:47:01;;;;;;;10.60;6.70;;;;;;;20.94;33.10;101924.92;103079;1293;71521;-84
2023/12/19 04:49:26;;;;;;;10.10;6.80;;;;;;;20.93;32.96;101930.00;103062;1294;62199;-84
2023/12/19 04:51:52;;;;;;;11.00;7.40;;;;;;;20.92;32.96;101931.67;103253;1293;62282;-83
2023/12/19 04:54:18;;;;;;;9.80;7.00;;;;;;;20.91;32.91;101931.19;103059;1293;60213;-84
2023/12/19 04:56:43;;;;;;;12.00;7.30;;;;;;;20.90;32.89;101938.75;103078;1296;62089;-83
2023/12/19 04:59:09;;;;;;;16.10;8.10;;;;;;;20.89;32.70;101940.56;103147;1293;62207;-83
2023/12/19 05:01:36;;;;;;;14.90;8.30;;;;;;;20.88;32.54;101939.61;103134;1293;60426;-83
2023/12/19 05:04:02;;;;;;;14.00;8.20;;;;;;;20.87;32.40;101938.09;103016;1293;62085;-83
2023/12/19 05:06:28;;;;;;;14.30;8.30;;;;;;;20.87;32.39;101934.09;103174;1293;59869;-83
2023/12/19 05:08:59;;;;;;;14.40;8.40;;;;;;;20.86;32.37;101937.52;103376;1293;72276;-83
2023/12/19 05:11:24;;;;;;;14.70;8.30;;;;;;;20.86;32.27;101950.41;103153;1293;60779;-84
2023/12/19 05:13:50;;;;;;;13.10;8.00;;;;;;;20.86;32.33;101956.88;103210;1293;60187;-83
2023/12/19 05:16:16;;;;;;;13.20;9.00;;;;;;;20.85;32.22;101960.11;103339;1295;62222;-83
2023/12/19 05:18:42;;;;;;;12.10;8.50;;;;;;;20.85;32.12;101962.30;103333;1295;62337;-83
2023/12/19 05:21:09;;;;;;;12.10;8.10;;;;;;;20.84;31.93;101967.84;103009;1296;62248;-83
2023/12/19 05:23:35;;;;;;;14.80;8.90;;;;;;;20.84;31.92;101962.69;103043;1296;60105;-83
2023/12/19 05:26:02;;;;;;;15.30;8.80;;;;;;;20.84;31.88;101962.85;102891;1296;62155;-83
2023/12/19 05:28:28;;;;;;;14.00;8.60;;;;;;;20.83;31.79;101962.20;103326;1295;62214;-84
2023/12/19 05:30:56;;;;;;;13.00;8.50;;;;;;;20.82;31.90;101959.04;102830;1295;62219;-83
2023/12/19 05:33:28;;;;;;;12.70;8.80;;;;;;;20.80;31.58;101953.40;102967;1293;60012;-83
2023/12/19 05:35:54;;;;;;;14.50;9.10;;;;;;;20.77;31.61;101954.30;103041;1293;62212;-83
2023/12/19 05:38:20;;;;;;;13.00;8.70;;;;;;;20.73;31.52;101956.06;103222;1293;59912;-83
2023/12/19 05:40:46;;;;;;;13.70;9.00;;;;;;;20.70;31.32;101957.14;102976;1293;62267;-82
2023/12/19 05:43:15;;;;;;;15.40;9.20;;;;;;;20.66;31.09;101953.91;103005;1293;62080;-83
2023/12/19 05:45:41;;;;;;;13.20;8.90;;;;;;;20.63;31.17;101952.48;103229;1293;60888;-83
2023/12/19 05:48:07;;;;;;;13.60;8.90;;;;;;;20.59;31.23;101955.35;103749;1292;62145;-81
2023/12/19 05:50:33;;;;;;;13.40;9.10;;;;;;;20.55;31.14;101955.17;103753;1293;62228;-81
2023/12/19 05:52:59;;;;;;;14.60;9.10;;;;;;;20.51;31.16;101953.25;103923;1296;59988;-83
2023/12/19 05:55:25;;;;;;;16.40;9.40;;;;;;;20.46;31.01;101962.95;104128;1293;60640;-81
2023/12/19 05:57:50;;;;;;;15.70;9.60;;;;;;;20.42;31.02;101968.55;104274;1293;60234;-82
2023/12/19 06:00:17;;;;;;;16.40;9.50;;;;;;;20.37;30.96;101967.15;104466;1294;62132;-81
2023/12/19 06:02:45;;;;;;;16.90;9.30;;;;;;;20.33;30.97;101965.59;104380;1293;75251;-83
2023/12/19 06:05:11;;;;;;;15.70;10.00;;;;;;;20.29;30.98;101964.72;105263;1293;59993;-82
2023/12/19 06:07:37;;;;;;;16.00;9.60;;;;;;;20.26;30.92;101961.84;104603;1294;59944;-81
2023/12/19 06:10:13;;;;;;;17.10;9.50;;;;;;;20.23;30.78;101958.21;104705;1293;60114;-80
2023/12/19 06:12:39;;;;;;;16.20;10.40;;;;;;;20.21;30.84;101959.91;104642;1293;74153;-82
2023/12/19 06:15:11;;;;;;;15.70;10.20;;;;;;;20.19;30.78;101961.64;104752;1293;61785;-82
2023/12/19 06:17:41;;;;;;;14.20;10.00;;;;;;;20.16;30.78;101957.81;104757;1293;62037;-83
2023/12/19 06:20:08;;;;;;;15.20;10.20;;;;;;;20.14;30.68;101961.70;104344;1299;73172;-83
2023/12/19 06:22:34;;;;;;;15.00;10.10;;;;;;;20.12;30.68;101967.89;104328;1300;76699;-81
2023/12/19 06:24:59;;;;;;;14.60;10.40;;;;;;;20.10;30.56;101963.14;103994;1293;60826;-81
2023/12/19 06:27:27;;;;;;;14.60;9.80;;;;;;;20.10;30.48;101960.46;103883;1292;62110;-80
2023/12/19 06:29:56;;;;;;;15.30;9.80;;;;;;;20.10;30.38;101957.02;103797;1293;72583;-80
2023/12/19 06:32:22;;;;;;;16.80;10.30;;;;;;;20.13;30.37;101954.42;103928;1293;62269;-81
2023/12/19 06:34:47;;;;;;;16.20;9.20;;;;;;;20.15;30.31;101951.12;103972;1293;62177;-81
2023/12/19 06:37:13;;;;;;;19.20;9.30;;;;;;;20.17;30.13;101949.38;103794;1293;59993;-81
2023/12/19 06:39:39;;;;;;;15.20;9.30;;;;;;;20.20;30.18;101952.84;103760;1295;62174;-81
2023/12/19 06:42:05;;;;;;;17.00;8.70;;;;;;;20.23;30.05;101954.27;103834;1293;62286;-81
2023/12/19 06:44:31;;;;;;;15.80;9.00;;;;;;;20.25;30.16;101950.02;103640;1293;75635;-81
2023/12/19 06:46:57;;;;;;;14.10;9.10;;;;;;;20.28;30.07;101952.63;103922;1293;62682;-80
2023/12/19 06:49:22;;;;;;;13.70;9.50;;;;;;;20.29;29.92;101952.02;103919;1293;61586;-81
2023/12/19 06:51:48;;;;;;;17.40;9.10;;;;;;;20.30;30.06;101945.34;104070;1294;60816;-80
2023/12/19 06:54:14;;;;;;;16.80;9.10;;;;;;;20.33;29.96;101946.66;103908;1294;61847;-81
2023/12/19 06:56:40;;;;;;;15.60;9.10;;;;;;;20.35;30.14;101945.46;103941;1293;60794;-79
2023/12/19 06:59:06;;;;;;;24.30;8.00;;;;;;;20.37;30.15;101943.40;103874;1294;61735;-80
2023/12/19 07:01:32;;;;;;;18.20;8.30;;;;;;;20.39;30.44;101940.98;103710;1293;62165;-79
2023/12/19 07:03:58;;;;;;;18.30;8.50;;;;;;;20.41;30.73;101940.52;104140;1294;62215;-82
2023/12/19 07:06:23;;;;;;;16.30;8.40;;;;;;;20.41;30.92;101942.29;103896;1293;62043;-83
2023/12/19 07:08:50;;;;;;;17.70;8.20;;;;;;;20.40;31.08;101943.45;104256;1293;60105;-82
2023/12/19 07:11:17;;;;;;;18.60;8.60;;;;;;;20.38;31.39;101936.92;104221;1293;59897;-82
2023/12/19 07:13:43;;;;;;;14.30;8.70;;;;;;;20.34;31.61;101934.95;104258;1294;62295;-82
2023/12/19 07:16:17;;;;;;;21.60;9.80;;;;;;;20.30;31.42;101937.48;104212;1293;62222;-82
2023/12/19 07:18:43;;;;;;;19.00;10.00;;;;;;;20.25;31.27;101942.73;104361;1294;59982;-82
2023/12/19 07:21:22;;;;;;;15.30;10.10;;;;;;;20.21;31.24;101944.21;104207;1293;60069;-83
2023/12/19 07:23:49;;;;;;;17.80;9.90;;;;;;;20.16;31.19;101941.06;104309;1293;72485;-84
2023/12/19 07:26:26;;;;;;;18.30;10.60;;;;;;;20.12;31.13;101943.56;104179;1293;75321;-83
2023/12/19 07:28:52;;;;;;;15.60;10.40;;;;;;;20.08;31.02;101953.93;104134;1293;59914;-81
2023/12/19 07:31:30;;;;;;;17.50;10.90;;;;;;;20.04;31.03;101958.03;104136;1293;62069;-81
2023/12/19 07:34:04;;;;;;;20.30;10.60;;;;;;;20.03;30.79;101950.05;104512;1293;73642;-82
2023/12/19 07:36:30;;;;;;;16.20;9.70;;;;;;;20.01;30.65;101941.77;103753;1298;619889;-81
2023/12/19 07:38:56;;;;;;;15.50;10.20;;;;;;;19.98;30.76;101947.26;104109;1293;62072;-81
2023/12/19 07:41:23;;;;;;;21.30;10.80;;;;;;;19.96;30.86;101952.91;104240;1294;60178;-82
2023/12/19 07:43:49;;;;;;;19.00;9.60;;;;;;;19.94;30.91;101952.98;104034;1293;62183;-82
2023/12/19 07:46:15;;;;;;;12.60;8.50;;;;;;;19.93;30.95;101954.67;104027;1294;60586;-82
2023/12/19 07:48:41;;;;;;;14.20;9.10;;;;;;;19.91;31.06;101952.63;104448;1293;60296;-82
2023/12/19 07:51:07;;;;;;;21.90;11.20;;;;;;;19.89;31.08;101952.14;104393;1294;62305;-83
2023/12/19 07:53:36;;;;;;;17.80;10.20;;;;;;;19.88;30.97;101953.80;104169;1293;62276;-81
2023/12/19 07:56:05;;;;;;;25.30;12.10;;;;;;;19.87;31.24;101953.70;104781;1293;75797;-81
2023/12/19 07:58:31;;;;;;;25.80;12.60;;;;;;;19.84;31.62;101953.29;104602;1293;61031;-81
2023/12/19 08:00:57;;;;;;;24.60;12.30;;;;;;;19.83;32.00;101952.11;104469;1294;61518;-80
2023/12/19 08:03:27;;;;;;;26.30;12.50;;;;;;;19.82;32.09;101956.44;103998;1293;62385;-81
2023/12/19 08:05:55;;;;;;;25.60;13.60;;;;;;;19.82;32.09;101962.66;103937;1297;76311;-80
2023/12/19 08:08:21;;;;;;;21.80;13.00;;;;;;;19.85;32.14;101968.63;103886;1293;61101;-81
2023/12/19 08:10:46;;;;;;;23.60;13.00;;;;;;;19.87;32.23;101969.04;103504;1294;63220;-80
2023/12/19 08:13:13;;;;;;;23.20;12.50;;;;;;;19.89;32.12;101967.34;103700;1293;62059;-80
2023/12/19 08:15:47;;;;;;;22.90;13.10;;;;;;;19.91;32.16;101964.93;103553;1294;60707;-80
2023/12/19 08:18:13;;;;;;;29.30;13.40;;;;;;;19.92;32.14;101970.58;103675;1293;60212;-80
2023/12/19 08:20:39;;;;;;;23.60;12.50;;;;;;;19.94;32.29;101967.66;103557;1293;62210;-79
2023/12/19 08:23:04;;;;;;;22.40;12.60;;;;;;;19.94;32.20;101956.38;104281;1293;60405;-81
2023/12/19 08:25:30;;;;;;;18.60;12.20;;;;;;;19.96;32.19;101954.16;103851;1293;62183;-82
2023/12/19 08:27:56;;;;;;;21.80;13.00;;;;;;;19.97;32.21;101965.41;104141;1293;59814;-83
2023/12/19 08:30:24;;;;;;;18.70;12.80;;;;;;;19.95;32.17;101961.88;104335;1293;60213;-81
2023/12/19 08:32:50;;;;;;;24.90;13.60;;;;;;;19.94;32.05;101949.08;103849;1298;60384;-83
2023/12/19 08:35:19;;;;;;;21.90;13.40;;;;;;;19.92;31.97;101952.20;104171;1294;73007;-80
2023/12/19 08:37:45;;;;;;;19.90;12.80;;;;;;;19.90;31.96;101948.36;104476;1293;63863;-81
2023/12/19 08:40:11;;;;;;;21.40;12.60;;;;;;;19.91;31.75;101943.66;103777;1294;63503;-80
2023/12/19 08:42:37;;;;;;;20.80;12.90;;;;;;;19.92;31.73;101938.42;103597;1293;62333;-80
2023/12/19 08:45:03;;;;;;;25.10;14.00;;;;;;;19.93;31.84;101934.98;103885;1293;60195;-81
2023/12/19 08:47:28;;;;;;;20.60;12.90;;;;;;;19.95;31.96;101930.08;103588;1295;63073;-81
2023/12/19 08:49:56;;;;;;;22.20;13.50;;;;;;;19.97;31.94;101925.36;103624;1297;61481;-81
2023/12/19 08:52:22;;;;;;;21.10;13.60;;;;;;;19.99;31.93;101921.52;103937;1294;62060;-81
2023/12/19 08:54:48;;;;;;;27.90;13.80;;;;;;;19.99;31.86;101922.20;104117;1293;62226;-81
2023/12/19 08:57:14;;;;;;;38.70;16.10;;;;;;;20.00;32.28;101918.21;104485;1294;61245;-81
2023/12/19 08:59:40;;;;;;;27.90;15.90;;;;;;;19.96;32.60;101911.98;104585;1293;62098;-84
2023/12/19 09:02:06;;;;;;;23.70;14.50;;;;;;;19.92;32.62;101910.21;104994;1293;62152;-81
2023/12/19 09:04:32;;;;;;;26.60;13.90;;;;;;;19.89;32.94;101903.21;104707;1294;62200;-80
2023/12/19 09:06:58;;;;;;;22.80;13.20;;;;;;;19.87;32.88;101894.58;104384;1293;62283;-81
2023/12/19 09:09:24;;;;;;;21.00;12.90;;;;;;;19.84;33.18;101887.73;104205;1293;60807;-81
2023/12/19 09:11:50;;;;;;;25.10;13.00;;;;;;;19.84;33.13;101881.52;104407;1294;59968;-81
2023/12/19 09:14:16;;;;;;;20.30;13.00;;;;;;;19.82;33.26;101877.11;104584;1293;62200;-81
2023/12/19 09:16:43;;;;;;;24.10;12.20;;;;;;;19.81;33.16;101870.04;103999;1294;60960;-80
2023/12/19 09:19:08;;;;;;;20.60;12.80;;;;;;;19.80;33.18;101871.85;104014;1294;72705;-81
2023/12/19 09:21:34;;;;;;;20.40;13.20;;;;;;;19.79;33.25;101875.10;103833;1293;61408;-80
2023/12/19 09:24:00;;;;;;;19.80;12.50;;;;;;;19.79;33.05;101872.95;104106;1293;62221;-80
2023/12/19 09:26:25;;;;;;;22.00;13.20;;;;;;;19.79;33.06;101868.67;103766;1293;62241;-81
2023/12/19 09:28:51;;;;;;;19.90;12.90;;;;;;;19.79;32.85;101865.30;104348;1293;62232;-81
2023/12/19 09:31:17;;;;;;;31.70;12.90;;;;;;;19.77;32.93;101863.03;104157;1295;60661;-82
2023/12/19 09:33:43;;;;;;;32.40;13.30;;;;;;;19.76;33.62;101858.42;103747;1297;75039;-81
2023/12/19 09:36:08;;;;;;;23.90;12.20;;;;;;;19.76;33.79;101849.33;103747;1293;62158;-82
2023/12/19 09:38:35;;;;;;;27.00;13.00;;;;;;;19.74;33.87;101846.55;104202;1293;61487;-81
2023/12/19 09:41:02;;;;;;;24.80;13.50;;;;;;;19.73;33.84;101835.91;104733;1294;60009;-81
2023/12/19 09:43:32;;;;;;;21.80;13.00;;;;;;;19.71;33.92;101831.91;104081;1299;60134;-81
2023/12/19 09:46:04;;;;;;;22.10;13.10;;;;;;;19.70;33.96;101827.50;104073;1293;60018;-82
2023/12/19 09:48:33;;;;;;;31.40;15.70;;;;;;;19.67;33.83;101825.29;104152;1292;62415;-81
2023/12/19 09:51:03;;;;;;;24.60;15.90;;;;;;;19.65;33.48;101818.98;104414;1293;72733;-80
2023/12/19 09:53:33;;;;;;;23.50;15.50;;;;;;;19.61;33.44;101808.82;104403;1293;75420;-82
2023/12/19 09:56:00;;;;;;;34.50;13.70;;;;;;;19.55;33.41;101798.40;104582;1293;60354;-83
2023/12/19 09:58:29;;;;;;;35.60;14.80;;;;;;;19.53;34.15;101797.41;105049;1293;60957;-80
2023/12/19 10:00:59;;;;;;;37.30;15.90;;;;;;;19.57;35.06;101799.73;104574;1294;72425;-79
2023/12/19 10:03:27;;;;;;;28.20;14.70;;;;;;;19.58;35.43;101794.30;104774;1294;76091;-80
2023/12/19 10:05:53;;;;;;;32.70;15.20;;;;;;;19.59;35.71;101794.08;104944;1293;60292;-82
2023/12/19 10:08:21;;;;;;;34.70;14.90;;;;;;;19.61;35.77;101792.23;105433;1293;60672;-80
2023/12/19 10:10:54;;;;;;;30.00;16.30;;;;;;;19.61;35.73;101789.91;105321;1294;72351;-81
2023/12/19 10:13:33;;;;;;;29.50;15.10;;;;;;;19.57;35.52;101784.72;105265;1293;75548;-81
2023/12/19 10:16:06;;;;;;;22.60;14.50;;;;;;;19.52;35.41;101775.13;105011;1294;60660;-79
2023/12/19 10:18:32;;;;;;;24.90;13.30;;;;;;;19.50;35.48;101765.78;105130;1293;60281;-80
2023/12/19 10:21:10;;;;;;;34.90;15.30;;;;;;;19.50;35.32;101759.20;104998;1294;60938;-82
2023/12/19 10:23:42;;;;;;;19.60;12.90;;;;;;;19.51;35.60;101755.19;105133;1296;75321;-82
2023/12/19 10:26:08;;;;;;;22.00;12.70;;;;;;;19.52;35.64;101756.23;104898;1293;60744;-80
2023/12/19 10:28:38;;;;;;;24.80;12.60;;;;;;;19.52;35.78;101745.67;104389;1294;61112;-81
2023/12/19 10:31:15;;;;;;;21.90;12.90;;;;;;;19.53;35.85;101741.89;103710;1294;72712;-81
2023/12/19 10:33:42;;;;;;;19.20;11.90;;;;;;;19.53;35.86;101748.13;104913;1294;76871;-80
2023/12/19 10:36:08;;;;;;;18.80;11.70;;;;;;;19.54;35.39;101740.61;103740;1294;62046;-80
2023/12/19 10:38:47;;;;;;;24.60;12.30;;;;;;;19.53;35.09;101738.11;103562;1294;62409;-79
2023/12/19 10:41:27;;;;;;;25.80;11.40;;;;;;;19.54;34.95;101737.17;103850;1294;71518;-81
2023/12/19 10:43:57;;;;;;;21.60;11.30;;;;;;;19.57;35.00;101736.86;103794;1294;75305;-80
2023/12/19 10:46:26;;;;;;;22.40;11.30;;;;;;;19.59;35.19;101737.29;104250;1293;60867;-79
2023/12/19 10:48:53;;;;;;;;;;;;;;;19.62;35.12;101733.79;103808;1293;60106;-80
2023/12/19 10:51:25;;;;;;;20.10;10.00;;;;;;;19.61;35.18;101729.90;104148;1294;72568;-80
2023/12/19 10:53:58;;;;;;;17.10;10.50;;;;;;;19.64;35.07;101732.95;104173;1296;76581;-79
2023/12/19 10:56:24;;;;;;;16.40;10.40;;;;;;;19.66;35.15;101741.05;103817;1293;61531;-79
2023/12/19 10:58:57;;;;;;;19.90;10.80;;;;;;;19.67;35.02;101734.94;103771;1302;62044;-80
2023/12/19 11:01:22;;;;;;;18.70;10.90;;;;;;;19.69;35.05;101729.48;104217;1294;72521;-80
2023/12/19 11:03:57;;;;;;;28.10;10.60;;;;;;;19.70;35.02;101724.27;104410;1294;60007;-81
2023/12/19 11:06:32;;;;;;;16.70;10.70;;;;;;;19.68;35.01;101713.61;104086;1299;61270;-80
2023/12/19 11:09:03;;;;;;;;;;;;;;;19.67;35.03;101706.37;104531;1294;62369;-81